sensor_id;sensor_type;location;lat;lon;timestamp;P1;durP1;ratioP1;P2;durP2;ratioP2
65172;SDS011;51758;52.218;5.172;2023-03-24T00:01:02;9.80;;;5.03;;
65172;SDS011;51758;52.218;5.172;2023-03-24T00:03:32;11.90;;;4.90;;
65172;SDS011;51758;52.218;5.172;2023-03-24T00:06:01;11.85;;;5.18;;
65172;SDS011;51758;52.218;5.172;2023-03-24T00:08:30;9.70;;;4.90;;
65172;SDS011;51758;52.218;5.172;2023-03-24T00:11:04;12.03;;;5.30;;
65172;SDS011;51758;52.218;5.172;2023-03-24T00:13:34;10.17;;;4.80;;
65172;SDS011;51758;52.218;5.172;2023-03-24T00:16:05;9.53;;;4.93;;
65172;SDS011;51758;52.218;5.172;2023-03-24T00:18:35;9.97;;;4.80;;
65172;SDS011;51758;52.218;5.172;2023-03-24T00:21:05;11.93;;;5.00;;
65172;SDS011;51758;52.218;5.172;2023-03-24T00:23:34;9.00;;;4.97;;
65172;SDS011;51758;52.218;5.172;2023-03-24T00:26:02;10.77;;;5.33;;
65172;SDS011;51758;52.218;5.172;2023-03-24T00:28:32;13.33;;;5.03;;
65172;SDS011;51758;52.218;5.172;2023-03-24T00:31:03;10.57;;;5.93;;
65172;SDS011;51758;52.218;5.172;2023-03-24T00:33:34;10.43;;;5.60;;
65172;SDS011;51758;52.218;5.172;2023-03-24T00:36:03;8.70;;;4.60;;
65172;SDS011;51758;52.218;5.172;2023-03-24T00:38:32;12.27;;;5.17;;
65172;SDS011;51758;52.218;5.172;2023-03-24T00:41:01;10.70;;;5.13;;
65172;SDS011;51758;52.218;5.172;2023-03-24T00:43:29;12.30;;;4.87;;
65172;SDS011;51758;52.218;5.172;2023-03-24T00:45:57;10.67;;;5.10;;
65172;SDS011;51758;52.218;5.172;2023-03-24T00:48:28;9.53;;;5.30;;
65172;SDS011;51758;52.218;5.172;2023-03-24T00:50:57;12.83;;;5.47;;
65172;SDS011;51758;52.218;5.172;2023-03-24T00:53:28;12.00;;;5.13;;
65172;SDS011;51758;52.218;5.172;2023-03-24T00:55:56;9.27;;;4.63;;
65172;SDS011;51758;52.218;5.172;2023-03-24T00:58:25;7.13;;;4.40;;
65172;SDS011;51758;52.218;5.172;2023-03-24T01:00:55;8.47;;;4.50;;
65172;SDS011;51758;52.218;5.172;2023-03-24T01:03:24;9.87;;;4.50;;
65172;SDS011;51758;52.218;5.172;2023-03-24T01:05:58;6.93;;;4.37;;
65172;SDS011;51758;52.218;5.172;2023-03-24T01:08:29;8.90;;;4.80;;
65172;SDS011;51758;52.218;5.172;2023-03-24T01:10:57;7.67;;;4.37;;
65172;SDS011;51758;52.218;5.172;2023-03-24T01:13:27;11.17;;;4.80;;
65172;SDS011;51758;52.218;5.172;2023-03-24T01:15:55;11.30;;;4.47;;
65172;SDS011;51758;52.218;5.172;2023-03-24T01:18:23;9.38;;;4.82;;
65172;SDS011;51758;52.218;5.172;2023-03-24T01:20:53;11.40;;;5.17;;
65172;SDS011;51758;52.218;5.172;2023-03-24T01:23:24;8.90;;;4.47;;
65172;SDS011;51758;52.218;5.172;2023-03-24T01:25:52;8.83;;;4.80;;
65172;SDS011;51758;52.218;5.172;2023-03-24T01:28:21;8.27;;;4.80;;
65172;SDS011;51758;52.218;5.172;2023-03-24T01:30:50;7.73;;;4.40;;
65172;SDS011;51758;52.218;5.172;2023-03-24T01:33:19;8.40;;;4.60;;
65172;SDS011;51758;52.218;5.172;2023-03-24T01:35:47;11.20;;;4.75;;
65172;SDS011;51758;52.218;5.172;2023-03-24T01:38:17;10.85;;;4.78;;
65172;SDS011;51758;52.218;5.172;2023-03-24T01:40:45;8.93;;;5.10;;
65172;SDS011;51758;52.218;5.172;2023-03-24T01:45:50;7.67;;;4.63;;
65172;SDS011;51758;52.218;5.172;2023-03-24T01:48:24;6.53;;;4.47;;
65172;SDS011;51758;52.218;5.172;2023-03-24T01:50:56;6.50;;;4.23;;
65172;SDS011;51758;52.218;5.172;2023-03-24T01:53:28;8.67;;;4.80;;
65172;SDS011;51758;52.218;5.172;2023-03-24T01:55:58;8.60;;;4.80;;
65172;SDS011;51758;52.218;5.172;2023-03-24T01:58:28;7.57;;;4.70;;
65172;SDS011;51758;52.218;5.172;2023-03-24T02:00:58;8.60;;;5.27;;
65172;SDS011;51758;52.218;5.172;2023-03-24T02:03:26;7.28;;;5.07;;
65172;SDS011;51758;52.218;5.172;2023-03-24T02:05:59;9.27;;;5.03;;
65172;SDS011;51758;52.218;5.172;2023-03-24T02:08:31;8.13;;;4.70;;
65172;SDS011;51758;52.218;5.172;2023-03-24T02:11:04;9.53;;;5.40;;
65172;SDS011;51758;52.218;5.172;2023-03-24T02:13:32;8.63;;;5.05;;
65172;SDS011;51758;52.218;5.172;2023-03-24T02:16:04;8.65;;;5.35;;
65172;SDS011;51758;52.218;5.172;2023-03-24T02:18:42;7.27;;;5.47;;
65172;SDS011;51758;52.218;5.172;2023-03-24T02:27:36;6.37;;;3.27;;
65172;SDS011;51758;52.218;5.172;2023-03-24T02:30:25;11.90;;;3.08;;
65172;SDS011;51758;52.218;5.172;2023-03-24T02:33:18;6.20;;;2.47;;
65172;SDS011;51758;52.218;5.172;2023-03-24T02:36:20;3.47;;;1.50;;
65172;SDS011;51758;52.218;5.172;2023-03-24T02:42:02;3.77;;;1.40;;
65172;SDS011;51758;52.218;5.172;2023-03-24T02:44:38;4.10;;;1.33;;
65172;SDS011;51758;52.218;5.172;2023-03-24T02:47:14;3.17;;;1.10;;
65172;SDS011;51758;52.218;5.172;2023-03-24T02:49:45;5.80;;;1.47;;
65172;SDS011;51758;52.218;5.172;2023-03-24T02:52:19;6.07;;;1.27;;
65172;SDS011;51758;52.218;5.172;2023-03-24T02:54:57;3.15;;;1.20;;
65172;SDS011;51758;52.218;5.172;2023-03-24T02:57:31;4.90;;;0.93;;
65172;SDS011;51758;52.218;5.172;2023-03-24T03:00:03;7.03;;;1.40;;
65172;SDS011;51758;52.218;5.172;2023-03-24T03:02:36;4.40;;;1.07;;
65172;SDS011;51758;52.218;5.172;2023-03-24T03:05:10;4.43;;;1.37;;
65172;SDS011;51758;52.218;5.172;2023-03-24T03:07:41;8.80;;;1.60;;
65172;SDS011;51758;52.218;5.172;2023-03-24T03:10:14;2.97;;;1.00;;
65172;SDS011;51758;52.218;5.172;2023-03-24T03:12:47;8.23;;;1.73;;
65172;SDS011;51758;52.218;5.172;2023-03-24T03:15:20;5.43;;;1.40;;
65172;SDS011;51758;52.218;5.172;2023-03-24T03:17:52;6.47;;;1.57;;
65172;SDS011;51758;52.218;5.172;2023-03-24T03:20:25;6.13;;;1.27;;
65172;SDS011;51758;52.218;5.172;2023-03-24T03:23:00;5.17;;;1.37;;
65172;SDS011;51758;52.218;5.172;2023-03-24T03:25:33;7.33;;;1.20;;
65172;SDS011;51758;52.218;5.172;2023-03-24T03:28:07;8.37;;;1.40;;
65172;SDS011;51758;52.218;5.172;2023-03-24T03:30:39;6.30;;;1.53;;
65172;SDS011;51758;52.218;5.172;2023-03-24T03:33:12;7.73;;;1.70;;
65172;SDS011;51758;52.218;5.172;2023-03-24T03:35:51;7.20;;;1.52;;
65172;SDS011;51758;52.218;5.172;2023-03-24T03:38:23;12.50;;;1.50;;
65172;SDS011;51758;52.218;5.172;2023-03-24T03:40:59;9.50;;;1.60;;
65172;SDS011;51758;52.218;5.172;2023-03-24T03:43:30;9.20;;;1.63;;
65172;SDS011;51758;52.218;5.172;2023-03-24T03:45:59;10.57;;;2.30;;
65172;SDS011;51758;52.218;5.172;2023-03-24T03:48:28;14.85;;;2.17;;
65172;SDS011;51758;52.218;5.172;2023-03-24T03:50:56;12.03;;;2.00;;
65172;SDS011;51758;52.218;5.172;2023-03-24T03:53:40;10.70;;;1.90;;
65172;SDS011;51758;52.218;5.172;2023-03-24T03:56:15;10.83;;;1.97;;
65172;SDS011;51758;52.218;5.172;2023-03-24T03:58:45;9.50;;;2.00;;
65172;SDS011;51758;52.218;5.172;2023-03-24T04:03:51;8.23;;;2.07;;
65172;SDS011;51758;52.218;5.172;2023-03-24T04:06:43;13.10;;;2.30;;
65172;SDS011;51758;52.218;5.172;2023-03-24T04:09:27;11.73;;;2.17;;
65172;SDS011;51758;52.218;5.172;2023-03-24T04:12:13;10.83;;;1.93;;
65172;SDS011;51758;52.218;5.172;2023-03-24T04:14:57;11.87;;;2.10;;
65172;SDS011;51758;52.218;5.172;2023-03-24T04:17:40;11.07;;;2.53;;
65172;SDS011;51758;52.218;5.172;2023-03-24T04:20:18;11.80;;;2.20;;
65172;SDS011;51758;52.218;5.172;2023-03-24T04:22:57;13.50;;;2.77;;
65172;SDS011;51758;52.218;5.172;2023-03-24T04:25:38;10.13;;;2.33;;
65172;SDS011;51758;52.218;5.172;2023-03-24T04:28:15;13.93;;;2.50;;
65172;SDS011;51758;52.218;5.172;2023-03-24T04:30:47;16.33;;;2.60;;
65172;SDS011;51758;52.218;5.172;2023-03-24T04:33:22;15.47;;;2.77;;
65172;SDS011;51758;52.218;5.172;2023-03-24T04:35:56;11.17;;;2.40;;
65172;SDS011;51758;52.218;5.172;2023-03-24T04:38:32;11.30;;;2.30;;
65172;SDS011;51758;52.218;5.172;2023-03-24T04:41:03;14.57;;;2.93;;
65172;SDS011;51758;52.218;5.172;2023-03-24T04:46:02;11.00;;;2.53;;
65172;SDS011;51758;52.218;5.172;2023-03-24T04:48:31;12.07;;;2.30;;
65172;SDS011;51758;52.218;5.172;2023-03-24T04:51:00;12.87;;;2.47;;
65172;SDS011;51758;52.218;5.172;2023-03-24T04:53:29;14.07;;;2.30;;
65172;SDS011;51758;52.218;5.172;2023-03-24T04:56:03;15.63;;;2.50;;
65172;SDS011;51758;52.218;5.172;2023-03-24T04:58:42;22.20;;;2.60;;
65172;SDS011;51758;52.218;5.172;2023-03-24T05:01:10;15.77;;;2.57;;
65172;SDS011;51758;52.218;5.172;2023-03-24T05:03:39;15.43;;;4.03;;
65172;SDS011;51758;52.218;5.172;2023-03-24T05:06:08;15.45;;;2.70;;
65172;SDS011;51758;52.218;5.172;2023-03-24T05:08:36;18.73;;;3.07;;
65172;SDS011;51758;52.218;5.172;2023-03-24T05:11:04;16.98;;;3.25;;
65172;SDS011;51758;52.218;5.172;2023-03-24T05:13:32;23.13;;;3.63;;
65172;SDS011;51758;52.218;5.172;2023-03-24T05:16:02;18.95;;;3.45;;
65172;SDS011;51758;52.218;5.172;2023-03-24T05:18:30;15.87;;;3.13;;
65172;SDS011;51758;52.218;5.172;2023-03-24T05:20:57;21.20;;;3.70;;
65172;SDS011;51758;52.218;5.172;2023-03-24T05:23:25;17.17;;;3.28;;
65172;SDS011;51758;52.218;5.172;2023-03-24T05:25:53;26.97;;;3.47;;
65172;SDS011;51758;52.218;5.172;2023-03-24T05:28:21;19.70;;;3.20;;
65172;SDS011;51758;52.218;5.172;2023-03-24T05:30:49;16.77;;;3.03;;
65172;SDS011;51758;52.218;5.172;2023-03-24T05:33:18;24.30;;;3.63;;
65172;SDS011;51758;52.218;5.172;2023-03-24T05:35:46;19.50;;;3.47;;
65172;SDS011;51758;52.218;5.172;2023-03-24T05:38:14;25.88;;;3.80;;
65172;SDS011;51758;52.218;5.172;2023-03-24T05:40:42;23.03;;;4.43;;
65172;SDS011;51758;52.218;5.172;2023-03-24T05:43:09;19.37;;;3.93;;
65172;SDS011;51758;52.218;5.172;2023-03-24T05:45:38;23.75;;;4.18;;
65172;SDS011;51758;52.218;5.172;2023-03-24T05:48:06;26.30;;;3.72;;
65172;SDS011;51758;52.218;5.172;2023-03-24T05:50:35;26.67;;;3.93;;
65172;SDS011;51758;52.218;5.172;2023-03-24T05:53:03;25.77;;;3.97;;
65172;SDS011;51758;52.218;5.172;2023-03-24T05:55:31;26.63;;;4.33;;
65172;SDS011;51758;52.218;5.172;2023-03-24T05:57:59;20.73;;;4.43;;
65172;SDS011;51758;52.218;5.172;2023-03-24T06:00:28;23.90;;;3.57;;
65172;SDS011;51758;52.218;5.172;2023-03-24T06:02:57;23.85;;;3.58;;
65172;SDS011;51758;52.218;5.172;2023-03-24T06:05:25;23.55;;;3.83;;
65172;SDS011;51758;52.218;5.172;2023-03-24T06:07:55;19.73;;;3.08;;
65172;SDS011;51758;52.218;5.172;2023-03-24T06:10:24;21.73;;;3.40;;
65172;SDS011;51758;52.218;5.172;2023-03-24T06:12:53;23.93;;;3.63;;
65172;SDS011;51758;52.218;5.172;2023-03-24T06:15:21;28.05;;;3.70;;
65172;SDS011;51758;52.218;5.172;2023-03-24T06:17:53;23.03;;;4.13;;
65172;SDS011;51758;52.218;5.172;2023-03-24T06:20:21;22.33;;;3.53;;
65172;SDS011;51758;52.218;5.172;2023-03-24T06:22:49;17.90;;;2.80;;
65172;SDS011;51758;52.218;5.172;2023-03-24T06:25:18;23.53;;;3.67;;
65172;SDS011;51758;52.218;5.172;2023-03-24T06:27:46;24.00;;;3.83;;
65172;SDS011;51758;52.218;5.172;2023-03-24T06:30:15;20.48;;;3.95;;
65172;SDS011;51758;52.218;5.172;2023-03-24T06:32:44;18.73;;;3.20;;
65172;SDS011;51758;52.218;5.172;2023-03-24T06:35:12;23.08;;;4.63;;
65172;SDS011;51758;52.218;5.172;2023-03-24T06:37:41;20.40;;;3.83;;
65172;SDS011;51758;52.218;5.172;2023-03-24T06:40:09;13.50;;;2.83;;
65172;SDS011;51758;52.218;5.172;2023-03-24T06:42:41;19.07;;;3.80;;
65172;SDS011;51758;52.218;5.172;2023-03-24T06:45:09;20.70;;;3.23;;
65172;SDS011;51758;52.218;5.172;2023-03-24T06:47:37;16.92;;;3.30;;
65172;SDS011;51758;52.218;5.172;2023-03-24T06:50:06;21.00;;;3.75;;
65172;SDS011;51758;52.218;5.172;2023-03-24T06:52:34;20.70;;;3.17;;
65172;SDS011;51758;52.218;5.172;2023-03-24T06:55:03;27.45;;;3.88;;
65172;SDS011;51758;52.218;5.172;2023-03-24T07:00:00;18.83;;;3.20;;
65172;SDS011;51758;52.218;5.172;2023-03-24T07:02:34;22.10;;;3.13;;
65172;SDS011;51758;52.218;5.172;2023-03-24T07:05:02;22.52;;;3.33;;
65172;SDS011;51758;52.218;5.172;2023-03-24T07:07:34;20.33;;;3.30;;
65172;SDS011;51758;52.218;5.172;2023-03-24T07:10:05;23.20;;;3.37;;
65172;SDS011;51758;52.218;5.172;2023-03-24T07:15:03;26.30;;;3.92;;
65172;SDS011;51758;52.218;5.172;2023-03-24T07:17:32;20.20;;;3.43;;
65172;SDS011;51758;52.218;5.172;2023-03-24T07:20:00;21.15;;;3.30;;
65172;SDS011;51758;52.218;5.172;2023-03-24T07:22:32;16.87;;;3.30;;
65172;SDS011;51758;52.218;5.172;2023-03-24T07:27:30;21.80;;;4.20;;
65172;SDS011;51758;52.218;5.172;2023-03-24T07:29:58;23.55;;;3.47;;
65172;SDS011;51758;52.218;5.172;2023-03-24T07:32:29;20.35;;;3.67;;
65172;SDS011;51758;52.218;5.172;2023-03-24T07:35:00;20.20;;;3.03;;
65172;SDS011;51758;52.218;5.172;2023-03-24T07:37:29;16.23;;;2.90;;
65172;SDS011;51758;52.218;5.172;2023-03-24T07:39:57;19.00;;;3.23;;
65172;SDS011;51758;52.218;5.172;2023-03-24T07:42:25;20.88;;;3.35;;
65172;SDS011;51758;52.218;5.172;2023-03-24T07:44:53;19.00;;;3.47;;
65172;SDS011;51758;52.218;5.172;2023-03-24T07:47:20;18.67;;;2.83;;
65172;SDS011;51758;52.218;5.172;2023-03-24T07:49:49;18.07;;;2.93;;
65172;SDS011;51758;52.218;5.172;2023-03-24T07:52:17;19.33;;;3.43;;
65172;SDS011;51758;52.218;5.172;2023-03-24T07:54:45;17.90;;;3.10;;
65172;SDS011;51758;52.218;5.172;2023-03-24T07:57:13;22.17;;;3.23;;
65172;SDS011;51758;52.218;5.172;2023-03-24T07:59:41;18.58;;;3.28;;
65172;SDS011;51758;52.218;5.172;2023-03-24T08:02:10;23.23;;;3.00;;
65172;SDS011;51758;52.218;5.172;2023-03-24T08:04:43;21.23;;;3.23;;
65172;SDS011;51758;52.218;5.172;2023-03-24T08:07:13;16.30;;;3.30;;
65172;SDS011;51758;52.218;5.172;2023-03-24T08:09:41;18.57;;;3.50;;
65172;SDS011;51758;52.218;5.172;2023-03-24T08:12:09;15.88;;;2.83;;
65172;SDS011;51758;52.218;5.172;2023-03-24T08:14:45;17.00;;;2.73;;
65172;SDS011;51758;52.218;5.172;2023-03-24T08:17:13;15.23;;;2.83;;
65172;SDS011;51758;52.218;5.172;2023-03-24T08:19:41;12.57;;;3.00;;
65172;SDS011;51758;52.218;5.172;2023-03-24T08:22:26;14.43;;;2.30;;
65172;SDS011;51758;52.218;5.172;2023-03-24T08:24:53;17.00;;;2.97;;
65172;SDS011;51758;52.218;5.172;2023-03-24T08:27:21;15.83;;;2.53;;
65172;SDS011;51758;52.218;5.172;2023-03-24T08:29:49;19.27;;;3.47;;
65172;SDS011;51758;52.218;5.172;2023-03-24T08:32:17;20.02;;;3.58;;
65172;SDS011;51758;52.218;5.172;2023-03-24T08:34:45;16.03;;;3.00;;
65172;SDS011;51758;52.218;5.172;2023-03-24T08:37:12;14.83;;;3.27;;
65172;SDS011;51758;52.218;5.172;2023-03-24T08:39:42;17.05;;;3.15;;
65172;SDS011;51758;52.218;5.172;2023-03-24T08:42:09;17.67;;;2.80;;
65172;SDS011;51758;52.218;5.172;2023-03-24T08:44:37;13.10;;;3.00;;
65172;SDS011;51758;52.218;5.172;2023-03-24T08:47:05;15.27;;;2.70;;
65172;SDS011;51758;52.218;5.172;2023-03-24T08:49:33;17.73;;;2.77;;
65172;SDS011;51758;52.218;5.172;2023-03-24T08:52:00;21.37;;;2.97;;
65172;SDS011;51758;52.218;5.172;2023-03-24T08:54:28;16.97;;;3.33;;
65172;SDS011;51758;52.218;5.172;2023-03-24T08:56:57;15.40;;;2.47;;
65172;SDS011;51758;52.218;5.172;2023-03-24T08:59:26;16.00;;;3.07;;
65172;SDS011;51758;52.218;5.172;2023-03-24T09:01:54;17.93;;;2.93;;
65172;SDS011;51758;52.218;5.172;2023-03-24T09:04:22;13.97;;;2.50;;
65172;SDS011;51758;52.218;5.172;2023-03-24T09:06:50;15.40;;;3.05;;
65172;SDS011;51758;52.218;5.172;2023-03-24T09:09:28;12.15;;;2.88;;
65172;SDS011;51758;52.218;5.172;2023-03-24T09:11:56;13.27;;;2.38;;
65172;SDS011;51758;52.218;5.172;2023-03-24T09:14:25;14.43;;;2.80;;
65172;SDS011;51758;52.218;5.172;2023-03-24T09:16:53;14.77;;;3.28;;
65172;SDS011;51758;52.218;5.172;2023-03-24T09:19:21;15.35;;;3.00;;
65172;SDS011;51758;52.218;5.172;2023-03-24T09:21:49;14.23;;;2.50;;
65172;SDS011;51758;52.218;5.172;2023-03-24T09:24:16;14.05;;;2.92;;
65172;SDS011;51758;52.218;5.172;2023-03-24T09:26:44;14.00;;;2.60;;
65172;SDS011;51758;52.218;5.172;2023-03-24T09:29:14;11.33;;;2.73;;
65172;SDS011;51758;52.218;5.172;2023-03-24T09:31:41;16.40;;;3.03;;
65172;SDS011;51758;52.218;5.172;2023-03-24T09:34:09;14.10;;;2.97;;
65172;SDS011;51758;52.218;5.172;2023-03-24T09:36:37;15.17;;;2.70;;
65172;SDS011;51758;52.218;5.172;2023-03-24T09:39:05;18.73;;;2.92;;
65172;SDS011;51758;52.218;5.172;2023-03-24T09:44:02;13.40;;;2.67;;
65172;SDS011;51758;52.218;5.172;2023-03-24T09:46:40;12.93;;;2.40;;
65172;SDS011;51758;52.218;5.172;2023-03-24T09:49:13;11.93;;;2.40;;
65172;SDS011;51758;52.218;5.172;2023-03-24T09:51:45;14.13;;;2.63;;
65172;SDS011;51758;52.218;5.172;2023-03-24T09:54:15;15.23;;;2.80;;
65172;SDS011;51758;52.218;5.172;2023-03-24T09:56:48;15.97;;;3.20;;
65172;SDS011;51758;52.218;5.172;2023-03-24T09:59:18;13.67;;;2.47;;
65172;SDS011;51758;52.218;5.172;2023-03-24T10:01:48;11.47;;;2.63;;
65172;SDS011;51758;52.218;5.172;2023-03-24T10:04:18;16.87;;;3.10;;
65172;SDS011;51758;52.218;5.172;2023-03-24T10:06:47;11.10;;;2.40;;
65172;SDS011;51758;52.218;5.172;2023-03-24T10:09:22;13.63;;;2.70;;
65172;SDS011;51758;52.218;5.172;2023-03-24T10:11:54;13.13;;;2.40;;
65172;SDS011;51758;52.218;5.172;2023-03-24T10:14:36;15.80;;;2.50;;
65172;SDS011;51758;52.218;5.172;2023-03-24T10:17:19;11.40;;;2.30;;
65172;SDS011;51758;52.218;5.172;2023-03-24T10:19:57;11.27;;;2.40;;
65172;SDS011;51758;52.218;5.172;2023-03-24T10:22:31;15.63;;;2.60;;
65172;SDS011;51758;52.218;5.172;2023-03-24T10:25:05;16.00;;;2.63;;
65172;SDS011;51758;52.218;5.172;2023-03-24T10:27:45;15.77;;;2.90;;
65172;SDS011;51758;52.218;5.172;2023-03-24T10:30:16;17.97;;;2.43;;
65172;SDS011;51758;52.218;5.172;2023-03-24T10:32:48;13.77;;;2.27;;
65172;SDS011;51758;52.218;5.172;2023-03-24T10:35:17;16.70;;;3.17;;
65172;SDS011;51758;52.218;5.172;2023-03-24T10:37:48;13.63;;;2.43;;
65172;SDS011;51758;52.218;5.172;2023-03-24T10:40:18;11.80;;;2.30;;
65172;SDS011;51758;52.218;5.172;2023-03-24T10:42:49;14.37;;;2.80;;
65172;SDS011;51758;52.218;5.172;2023-03-24T10:45:35;12.48;;;2.58;;
65172;SDS011;51758;52.218;5.172;2023-03-24T10:48:07;14.32;;;2.67;;
65172;SDS011;51758;52.218;5.172;2023-03-24T10:50:35;13.13;;;2.35;;
65172;SDS011;51758;52.218;5.172;2023-03-24T10:53:10;15.48;;;2.53;;
65172;SDS011;51758;52.218;5.172;2023-03-24T10:55:43;11.32;;;2.20;;
65172;SDS011;51758;52.218;5.172;2023-03-24T10:58:15;13.75;;;3.22;;
65172;SDS011;51758;52.218;5.172;2023-03-24T11:00:46;11.68;;;2.17;;
65172;SDS011;51758;52.218;5.172;2023-03-24T11:03:20;14.73;;;2.83;;
65172;SDS011;51758;52.218;5.172;2023-03-24T11:05:56;14.00;;;2.50;;
65172;SDS011;51758;52.218;5.172;2023-03-24T11:08:26;11.57;;;2.63;;
65172;SDS011;51758;52.218;5.172;2023-03-24T11:10:58;15.63;;;2.50;;
65172;SDS011;51758;52.218;5.172;2023-03-24T11:13:27;13.43;;;2.38;;
65172;SDS011;51758;52.218;5.172;2023-03-24T11:16:04;9.70;;;2.00;;
65172;SDS011;51758;52.218;5.172;2023-03-24T11:18:38;15.73;;;2.47;;
65172;SDS011;51758;52.218;5.172;2023-03-24T11:21:21;15.47;;;2.50;;
65172;SDS011;51758;52.218;5.172;2023-03-24T11:23:50;10.45;;;2.30;;
65172;SDS011;51758;52.218;5.172;2023-03-24T11:26:18;11.52;;;2.40;;
65172;SDS011;51758;52.218;5.172;2023-03-24T11:28:49;14.70;;;2.80;;
65172;SDS011;51758;52.218;5.172;2023-03-24T11:31:20;12.43;;;2.60;;
65172;SDS011;51758;52.218;5.172;2023-03-24T11:33:54;10.80;;;2.30;;
65172;SDS011;51758;52.218;5.172;2023-03-24T11:36:38;12.63;;;2.90;;
65172;SDS011;51758;52.218;5.172;2023-03-24T11:39:12;14.30;;;2.67;;
65172;SDS011;51758;52.218;5.172;2023-03-24T11:41:54;12.97;;;2.60;;
65172;SDS011;51758;52.218;5.172;2023-03-24T11:44:29;11.80;;;2.27;;
65172;SDS011;51758;52.218;5.172;2023-03-24T11:46:59;11.60;;;2.53;;
65172;SDS011;51758;52.218;5.172;2023-03-24T11:49:35;11.23;;;2.13;;
65172;SDS011;51758;52.218;5.172;2023-03-24T11:52:19;18.60;;;3.03;;
65172;SDS011;51758;52.218;5.172;2023-03-24T11:54:49;10.87;;;2.43;;
65172;SDS011;51758;52.218;5.172;2023-03-24T11:57:19;16.40;;;2.55;;
65172;SDS011;51758;52.218;5.172;2023-03-24T11:59:55;12.83;;;2.33;;
65172;SDS011;51758;52.218;5.172;2023-03-24T12:02:29;12.53;;;2.63;;
65172;SDS011;51758;52.218;5.172;2023-03-24T12:05:16;9.57;;;2.17;;
65172;SDS011;51758;52.218;5.172;2023-03-24T12:10:54;9.53;;;1.67;;
65172;SDS011;51758;52.218;5.172;2023-03-24T12:13:34;13.90;;;1.93;;
65172;SDS011;51758;52.218;5.172;2023-03-24T12:21:59;8.82;;;1.63;;
65172;SDS011;51758;52.218;5.172;2023-03-24T12:24:39;9.80;;;2.00;;
65172;SDS011;51758;52.218;5.172;2023-03-24T12:27:21;6.72;;;1.58;;
65172;SDS011;51758;52.218;5.172;2023-03-24T12:29:58;6.50;;;1.70;;
65172;SDS011;51758;52.218;5.172;2023-03-24T12:32:34;6.53;;;1.60;;
65172;SDS011;51758;52.218;5.172;2023-03-24T12:38:04;6.82;;;1.70;;
65172;SDS011;51758;52.218;5.172;2023-03-24T12:40:59;6.20;;;1.67;;
65172;SDS011;51758;52.218;5.172;2023-03-24T12:43:37;7.88;;;1.92;;
65172;SDS011;51758;52.218;5.172;2023-03-24T12:49:11;10.57;;;1.50;;
65172;SDS011;51758;52.218;5.172;2023-03-24T12:51:50;9.48;;;1.70;;
65172;SDS011;51758;52.218;5.172;2023-03-24T12:57:03;9.75;;;1.65;;
65172;SDS011;51758;52.218;5.172;2023-03-24T12:59:36;7.50;;;1.77;;
65172;SDS011;51758;52.218;5.172;2023-03-24T13:02:11;10.90;;;1.90;;
65172;SDS011;51758;52.218;5.172;2023-03-24T13:04:47;7.90;;;1.83;;
65172;SDS011;51758;52.218;5.172;2023-03-24T13:07:19;10.60;;;1.90;;
65172;SDS011;51758;52.218;5.172;2023-03-24T13:09:53;10.90;;;1.92;;
65172;SDS011;51758;52.218;5.172;2023-03-24T13:12:27;9.27;;;2.00;;
65172;SDS011;51758;52.218;5.172;2023-03-24T13:15:01;14.05;;;2.08;;
65172;SDS011;51758;52.218;5.172;2023-03-24T13:17:40;10.68;;;2.10;;
65172;SDS011;51758;52.218;5.172;2023-03-24T13:20:15;12.48;;;2.00;;
65172;SDS011;51758;52.218;5.172;2023-03-24T13:22:51;12.82;;;2.10;;
65172;SDS011;51758;52.218;5.172;2023-03-24T13:25:24;12.70;;;2.35;;
65172;SDS011;51758;52.218;5.172;2023-03-24T13:28:03;9.95;;;2.22;;
65172;SDS011;51758;52.218;5.172;2023-03-24T13:30:38;10.00;;;2.00;;
65172;SDS011;51758;52.218;5.172;2023-03-24T13:33:10;8.70;;;2.20;;
65172;SDS011;51758;52.218;5.172;2023-03-24T13:35:47;11.88;;;2.10;;
65172;SDS011;51758;52.218;5.172;2023-03-24T13:38:25;11.73;;;2.10;;
65172;SDS011;51758;52.218;5.172;2023-03-24T13:41:01;9.65;;;2.20;;
65172;SDS011;51758;52.218;5.172;2023-03-24T13:43:31;10.80;;;2.20;;
65172;SDS011;51758;52.218;5.172;2023-03-24T13:46:00;10.32;;;2.20;;
65172;SDS011;51758;52.218;5.172;2023-03-24T13:48:32;12.13;;;2.20;;
65172;SDS011;51758;52.218;5.172;2023-03-24T13:51:04;11.20;;;2.00;;
65172;SDS011;51758;52.218;5.172;2023-03-24T13:53:42;11.23;;;2.55;;
65172;SDS011;51758;52.218;5.172;2023-03-24T13:56:19;12.43;;;2.58;;
65172;SDS011;51758;52.218;5.172;2023-03-24T13:59:04;10.80;;;2.20;;
65172;SDS011;51758;52.218;5.172;2023-03-24T14:01:35;11.00;;;2.15;;
65172;SDS011;51758;52.218;5.172;2023-03-24T14:04:17;12.43;;;2.17;;
65172;SDS011;51758;52.218;5.172;2023-03-24T14:06:53;11.90;;;2.55;;
65172;SDS011;51758;52.218;5.172;2023-03-24T14:09:22;8.90;;;1.83;;
65172;SDS011;51758;52.218;5.172;2023-03-24T14:12:14;6.55;;;1.90;;
65172;SDS011;51758;52.218;5.172;2023-03-24T14:15:08;8.98;;;1.45;;
65172;SDS011;51758;52.218;5.172;2023-03-24T14:17:41;7.35;;;1.30;;
65172;SDS011;51758;52.218;5.172;2023-03-24T14:20:12;4.83;;;1.17;;
65172;SDS011;51758;52.218;5.172;2023-03-24T14:22:52;4.97;;;1.00;;
65172;SDS011;51758;52.218;5.172;2023-03-24T14:25:21;5.90;;;1.10;;
65172;SDS011;51758;52.218;5.172;2023-03-24T14:27:54;5.30;;;1.00;;
65172;SDS011;51758;52.218;5.172;2023-03-24T14:30:37;5.27;;;1.13;;
65172;SDS011;51758;52.218;5.172;2023-03-24T14:33:28;8.43;;;1.37;;
65172;SDS011;51758;52.218;5.172;2023-03-24T14:35:57;4.07;;;1.08;;
65172;SDS011;51758;52.218;5.172;2023-03-24T14:38:33;7.70;;;1.30;;
65172;SDS011;51758;52.218;5.172;2023-03-24T14:41:07;5.83;;;1.20;;
65172;SDS011;51758;52.218;5.172;2023-03-24T14:43:55;6.67;;;1.20;;
65172;SDS011;51758;52.218;5.172;2023-03-24T14:46:40;5.87;;;1.30;;
65172;SDS011;51758;52.218;5.172;2023-03-24T14:49:14;7.50;;;1.73;;
65172;SDS011;51758;52.218;5.172;2023-03-24T14:54:25;6.97;;;1.47;;
65172;SDS011;51758;52.218;5.172;2023-03-24T14:56:57;8.20;;;1.50;;
65172;SDS011;51758;52.218;5.172;2023-03-24T15:02:04;12.60;;;2.20;;
65172;SDS011;51758;52.218;5.172;2023-03-24T15:08:01;7.53;;;1.30;;
65172;SDS011;51758;52.218;5.172;2023-03-24T15:10:39;12.47;;;1.83;;
65172;SDS011;51758;52.218;5.172;2023-03-24T15:13:22;7.50;;;1.80;;
65172;SDS011;51758;52.218;5.172;2023-03-24T15:15:57;8.70;;;1.87;;
65172;SDS011;51758;52.218;5.172;2023-03-24T15:18:26;8.77;;;1.70;;
65172;SDS011;51758;52.218;5.172;2023-03-24T15:20:54;6.40;;;1.70;;
65172;SDS011;51758;52.218;5.172;2023-03-24T15:23:23;12.55;;;2.10;;
65172;SDS011;51758;52.218;5.172;2023-03-24T15:25:53;6.90;;;1.70;;
65172;SDS011;51758;52.218;5.172;2023-03-24T15:28:23;10.02;;;1.48;;
65172;SDS011;51758;52.218;5.172;2023-03-24T15:30:53;7.30;;;1.77;;
65172;SDS011;51758;52.218;5.172;2023-03-24T15:33:25;7.85;;;1.70;;
65172;SDS011;51758;52.218;5.172;2023-03-24T15:35:58;9.27;;;1.73;;
65172;SDS011;51758;52.218;5.172;2023-03-24T15:38:28;9.25;;;1.80;;
65172;SDS011;51758;52.218;5.172;2023-03-24T15:40:57;9.85;;;1.88;;
65172;SDS011;51758;52.218;5.172;2023-03-24T15:43:29;9.30;;;2.15;;
65172;SDS011;51758;52.218;5.172;2023-03-24T15:45:57;7.63;;;1.65;;
65172;SDS011;51758;52.218;5.172;2023-03-24T15:48:39;8.45;;;1.75;;
65172;SDS011;51758;52.218;5.172;2023-03-24T15:51:07;7.63;;;1.50;;
65172;SDS011;51758;52.218;5.172;2023-03-24T15:53:38;8.17;;;1.97;;
65172;SDS011;51758;52.218;5.172;2023-03-24T15:56:23;11.60;;;1.83;;
65172;SDS011;51758;52.218;5.172;2023-03-24T15:58:52;8.63;;;1.60;;
65172;SDS011;51758;52.218;5.172;2023-03-24T16:01:23;12.07;;;2.33;;